sensor_id;sensor_type;location;lat;lon;timestamp;temperature;humidity
22578;DHT22;11455;52.390;13.028;2023-07-31T00:01:57;19.10;99.90
22578;DHT22;11455;52.390;13.028;2023-07-31T00:04:29;19.10;99.90
22578;DHT22;11455;52.390;13.028;2023-07-31T00:07:01;19.10;99.90
22578;DHT22;11455;52.390;13.028;2023-07-31T00:09:36;19.00;99.90
22578;DHT22;11455;52.390;13.028;2023-07-31T00:12:08;19.00;99.90
22578;DHT22;11455;52.390;13.028;2023-07-31T00:14:43;19.00;99.90
22578;DHT22;11455;52.390;13.028;2023-07-31T00:17:17;19.00;99.90
22578;DHT22;11455;52.390;13.028;2023-07-31T00:19:49;19.10;99.90
22578;DHT22;11455;52.390;13.028;2023-07-31T00:22:22;19.10;99.90
22578;DHT22;11455;52.390;13.028;2023-07-31T00:24:55;19.10;99.90
22578;DHT22;11455;52.390;13.028;2023-07-31T00:27:27;19.10;99.90
22578;DHT22;11455;52.390;13.028;2023-07-31T00:30:03;19.10;99.90
22578;DHT22;11455;52.390;13.028;2023-07-31T00:32:42;19.10;99.90
22578;DHT22;11455;52.390;13.028;2023-07-31T00:35:14;19.10;99.90
22578;DHT22;11455;52.390;13.028;2023-07-31T00:37:46;19.20;99.90
22578;DHT22;11455;52.390;13.028;2023-07-31T00:40:18;19.20;99.90
22578;DHT22;11455;52.390;13.028;2023-07-31T00:42:50;19.20;99.90
22578;DHT22;11455;52.390;13.028;2023-07-31T00:45:23;19.10;99.90
22578;DHT22;11455;52.390;13.028;2023-07-31T00:47:56;19.00;99.90
22578;DHT22;11455;52.390;13.028;2023-07-31T00:50:28;19.00;99.90
22578;DHT22;11455;52.390;13.028;2023-07-31T00:53:01;19.00;99.90
22578;DHT22;11455;52.390;13.028;2023-07-31T00:55:28;19.00;99.90
22578;DHT22;11455;52.390;13.028;2023-07-31T00:58:03;19.00;99.90
22578;DHT22;11455;52.390;13.028;2023-07-31T01:00:38;19.00;99.90
22578;DHT22;11455;52.390;13.028;2023-07-31T01:03:11;18.90;99.90
22578;DHT22;11455;52.390;13.028;2023-07-31T01:08:36;18.90;99.90
22578;DHT22;11455;52.390;13.028;2023-07-31T01:11:22;18.90;99.90
22578;DHT22;11455;52.390;13.028;2023-07-31T01:14:00;18.90;99.90
22578;DHT22;11455;52.390;13.028;2023-07-31T01:16:31;19.00;99.90
22578;DHT22;11455;52.390;13.028;2023-07-31T01:19:06;19.00;99.90
22578;DHT22;11455;52.390;13.028;2023-07-31T01:27:24;18.90;99.90
22578;DHT22;11455;52.390;13.028;2023-07-31T01:30:26;18.90;99.90
22578;DHT22;11455;52.390;13.028;2023-07-31T01:33:05;19.00;99.90
22578;DHT22;11455;52.390;13.028;2023-07-31T01:35:43;19.00;99.90
22578;DHT22;11455;52.390;13.028;2023-07-31T01:38:15;19.00;99.90
22578;DHT22;11455;52.390;13.028;2023-07-31T01:40:52;19.00;99.90
22578;DHT22;11455;52.390;13.028;2023-07-31T01:43:25;19.00;99.90
22578;DHT22;11455;52.390;13.028;2023-07-31T01:46:00;19.00;99.90
22578;DHT22;11455;52.390;13.028;2023-07-31T01:48:32;19.00;99.90
22578;DHT22;11455;52.390;13.028;2023-07-31T01:51:07;19.00;99.90
22578;DHT22;11455;52.390;13.028;2023-07-31T01:53:39;19.00;99.90
22578;DHT22;11455;52.390;13.028;2023-07-31T01:56:11;19.00;99.90
22578;DHT22;11455;52.390;13.028;2023-07-31T01:58:43;19.00;99.90
22578;DHT22;11455;52.390;13.028;2023-07-31T02:01:15;19.00;99.90
22578;DHT22;11455;52.390;13.028;2023-07-31T02:03:48;19.00;99.90
22578;DHT22;11455;52.390;13.028;2023-07-31T02:06:24;19.00;99.90
22578;DHT22;11455;52.390;13.028;2023-07-31T02:08:58;18.90;99.90
22578;DHT22;11455;52.390;13.028;2023-07-31T02:11:31;18.90;99.90
22578;DHT22;11455;52.390;13.028;2023-07-31T02:14:03;18.90;99.90
22578;DHT22;11455;52.390;13.028;2023-07-31T02:16:35;18.90;99.90
22578;DHT22;11455;52.390;13.028;2023-07-31T02:19:07;18.80;99.90
22578;DHT22;11455;52.390;13.028;2023-07-31T02:21:39;18.80;99.90
22578;DHT22;11455;52.390;13.028;2023-07-31T02:24:11;18.80;99.90
22578;DHT22;11455;52.390;13.028;2023-07-31T02:26:46;18.90;99.90
22578;DHT22;11455;52.390;13.028;2023-07-31T02:29:27;18.80;99.90
22578;DHT22;11455;52.390;13.028;2023-07-31T02:32:09;18.80;99.90
22578;DHT22;11455;52.390;13.028;2023-07-31T02:34:41;18.90;99.90
22578;DHT22;11455;52.390;13.028;2023-07-31T02:37:13;18.90;99.90
22578;DHT22;11455;52.390;13.028;2023-07-31T02:39:45;18.90;99.90
22578;DHT22;11455;52.390;13.028;2023-07-31T02:42:20;18.90;99.90
22578;DHT22;11455;52.390;13.028;2023-07-31T02:44:52;18.90;99.90
22578;DHT22;11455;52.390;13.028;2023-07-31T02:47:27;18.80;99.90
22578;DHT22;11455;52.390;13.028;2023-07-31T02:50:04;18.80;99.90
22578;DHT22;11455;52.390;13.028;2023-07-31T02:52:36;18.80;99.90
22578;DHT22;11455;52.390;13.028;2023-07-31T02:55:09;18.70;99.90
22578;DHT22;11455;52.390;13.028;2023-07-31T02:57:41;18.70;99.90
22578;DHT22;11455;52.390;13.028;2023-07-31T03:00:14;18.70;99.90
22578;DHT22;11455;52.390;13.028;2023-07-31T03:02:46;18.70;99.90
22578;DHT22;11455;52.390;13.028;2023-07-31T03:05:20;18.70;99.90
22578;DHT22;11455;52.390;13.028;2023-07-31T03:07:52;18.70;99.90
22578;DHT22;11455;52.390;13.028;2023-07-31T03:10:21;18.70;99.90
22578;DHT22;11455;52.390;13.028;2023-07-31T03:13:02;18.60;99.90
22578;DHT22;11455;52.390;13.028;2023-07-31T03:15:37;18.60;99.90
22578;DHT22;11455;52.390;13.028;2023-07-31T03:18:10;18.60;99.90
22578;DHT22;11455;52.390;13.028;2023-07-31T03:20:43;18.60;99.90
22578;DHT22;11455;52.390;13.028;2023-07-31T03:23:17;18.60;99.90
22578;DHT22;11455;52.390;13.028;2023-07-31T03:26:01;18.60;99.90
22578;DHT22;11455;52.390;13.028;2023-07-31T03:28:34;18.60;99.90
22578;DHT22;11455;52.390;13.028;2023-07-31T03:31:20;18.60;99.90
22578;DHT22;11455;52.390;13.028;2023-07-31T03:33:52;18.70;99.90
22578;DHT22;11455;52.390;13.028;2023-07-31T03:36:24;18.70;99.90
22578;DHT22;11455;52.390;13.028;2023-07-31T03:38:58;18.70;99.90
22578;DHT22;11455;52.390;13.028;2023-07-31T03:41:30;18.70;99.90
22578;DHT22;11455;52.390;13.028;2023-07-31T03:44:03;18.60;99.90
22578;DHT22;11455;52.390;13.028;2023-07-31T03:46:34;18.50;99.90
22578;DHT22;11455;52.390;13.028;2023-07-31T03:49:07;18.50;99.90
22578;DHT22;11455;52.390;13.028;2023-07-31T03:51:39;18.60;99.90
22578;DHT22;11455;52.390;13.028;2023-07-31T03:54:11;18.60;99.90
22578;DHT22;11455;52.390;13.028;2023-07-31T03:56:44;18.60;99.90
22578;DHT22;11455;52.390;13.028;2023-07-31T03:59:13;18.70;99.90
22578;DHT22;11455;52.390;13.028;2023-07-31T04:01:45;18.70;99.90
22578;DHT22;11455;52.390;13.028;2023-07-31T04:04:17;18.70;99.90
22578;DHT22;11455;52.390;13.028;2023-07-31T04:06:49;18.70;99.90
22578;DHT22;11455;52.390;13.028;2023-07-31T04:09:21;18.60;99.90
22578;DHT22;11455;52.390;13.028;2023-07-31T04:11:53;18.70;99.90
22578;DHT22;11455;52.390;13.028;2023-07-31T04:14:25;18.60;99.90
22578;DHT22;11455;52.390;13.028;2023-07-31T04:16:51;18.60;99.90
22578;DHT22;11455;52.390;13.028;2023-07-31T04:19:24;18.60;99.90
22578;DHT22;11455;52.390;13.028;2023-07-31T04:21:56;18.70;99.90
22578;DHT22;11455;52.390;13.028;2023-07-31T04:24:28;18.60;99.90
22578;DHT22;11455;52.390;13.028;2023-07-31T04:27:03;18.60;99.90
22578;DHT22;11455;52.390;13.028;2023-07-31T04:29:38;18.50;99.90
22578;DHT22;11455;52.390;13.028;2023-07-31T04:32:11;18.50;99.90
22578;DHT22;11455;52.390;13.028;2023-07-31T04:34:46;18.50;99.90
22578;DHT22;11455;52.390;13.028;2023-07-31T04:37:21;18.50;99.90
22578;DHT22;11455;52.390;13.028;2023-07-31T04:39:53;18.60;99.90
22578;DHT22;11455;52.390;13.028;2023-07-31T04:42:28;18.50;99.90
22578;DHT22;11455;52.390;13.028;2023-07-31T04:45:00;18.50;99.90
22578;DHT22;11455;52.390;13.028;2023-07-31T04:47:32;18.40;99.90
22578;DHT22;11455;52.390;13.028;2023-07-31T04:50:08;18.50;99.90
22578;DHT22;11455;52.390;13.028;2023-07-31T04:52:40;18.50;99.90
22578;DHT22;11455;52.390;13.028;2023-07-31T04:55:15;18.50;99.90
22578;DHT22;11455;52.390;13.028;2023-07-31T04:57:47;18.40;99.90
22578;DHT22;11455;52.390;13.028;2023-07-31T05:00:23;18.30;99.90
22578;DHT22;11455;52.390;13.028;2023-07-31T05:02:55;18.20;99.90
22578;DHT22;11455;52.390;13.028;2023-07-31T05:05:27;18.30;99.90
22578;DHT22;11455;52.390;13.028;2023-07-31T05:08:03;18.20;99.90
22578;DHT22;11455;52.390;13.028;2023-07-31T05:10:34;18.20;99.90
22578;DHT22;11455;52.390;13.028;2023-07-31T05:13:06;18.20;99.90
22578;DHT22;11455;52.390;13.028;2023-07-31T05:15:32;18.20;99.90
22578;DHT22;11455;52.390;13.028;2023-07-31T05:18:04;18.20;99.90
22578;DHT22;11455;52.390;13.028;2023-07-31T05:20:38;18.20;99.90
22578;DHT22;11455;52.390;13.028;2023-07-31T05:23:10;18.10;99.90
22578;DHT22;11455;52.390;13.028;2023-07-31T05:25:42;18.10;99.90
22578;DHT22;11455;52.390;13.028;2023-07-31T05:28:17;18.10;99.90
22578;DHT22;11455;52.390;13.028;2023-07-31T05:31:01;18.20;99.90
22578;DHT22;11455;52.390;13.028;2023-07-31T05:33:40;18.20;1.00
22578;DHT22;11455;52.390;13.028;2023-07-31T05:36:17;18.10;1.00
22578;DHT22;11455;52.390;13.028;2023-07-31T05:38:52;18.00;1.00
22578;DHT22;11455;52.390;13.028;2023-07-31T05:41:27;18.00;1.00
22578;DHT22;11455;52.390;13.028;2023-07-31T05:43:58;17.90;1.00
22578;DHT22;11455;52.390;13.028;2023-07-31T05:46:30;18.00;1.00
22578;DHT22;11455;52.390;13.028;2023-07-31T05:49:03;18.00;1.00
22578;DHT22;11455;52.390;13.028;2023-07-31T05:51:34;18.00;1.00
22578;DHT22;11455;52.390;13.028;2023-07-31T05:54:06;18.00;1.00
22578;DHT22;11455;52.390;13.028;2023-07-31T05:56:38;18.00;1.00
22578;DHT22;11455;52.390;13.028;2023-07-31T05:59:04;18.00;1.00
22578;DHT22;11455;52.390;13.028;2023-07-31T06:01:36;18.10;1.00
22578;DHT22;11455;52.390;13.028;2023-07-31T06:04:12;18.10;1.00
22578;DHT22;11455;52.390;13.028;2023-07-31T06:06:44;18.10;1.00
22578;DHT22;11455;52.390;13.028;2023-07-31T06:09:16;18.10;1.00
22578;DHT22;11455;52.390;13.028;2023-07-31T06:11:49;18.20;1.00
22578;DHT22;11455;52.390;13.028;2023-07-31T06:14:26;18.30;1.00
22578;DHT22;11455;52.390;13.028;2023-07-31T06:16:58;18.30;1.00
22578;DHT22;11455;52.390;13.028;2023-07-31T06:19:30;18.20;1.00
22578;DHT22;11455;52.390;13.028;2023-07-31T06:22:03;18.30;1.00
22578;DHT22;11455;52.390;13.028;2023-07-31T06:24:37;18.40;1.00
22578;DHT22;11455;52.390;13.028;2023-07-31T06:27:10;18.30;1.00
22578;DHT22;11455;52.390;13.028;2023-07-31T06:29:48;18.30;1.00
22578;DHT22;11455;52.390;13.028;2023-07-31T06:32:20;18.20;1.00
22578;DHT22;11455;52.390;13.028;2023-07-31T06:34:52;18.20;1.00
22578;DHT22;11455;52.390;13.028;2023-07-31T06:37:26;18.10;1.00
22578;DHT22;11455;52.390;13.028;2023-07-31T06:39:57;18.10;1.00
22578;DHT22;11455;52.390;13.028;2023-07-31T06:42:29;18.20;1.00
22578;DHT22;11455;52.390;13.028;2023-07-31T06:45:02;18.20;1.00
22578;DHT22;11455;52.390;13.028;2023-07-31T06:47:37;18.10;1.00
22578;DHT22;11455;52.390;13.028;2023-07-31T06:50:09;18.10;1.00
22578;DHT22;11455;52.390;13.028;2023-07-31T06:52:41;18.00;1.00
22578;DHT22;11455;52.390;13.028;2023-07-31T06:55:24;18.10;1.00
22578;DHT22;11455;52.390;13.028;2023-07-31T06:57:56;18.10;1.00
22578;DHT22;11455;52.390;13.028;2023-07-31T07:00:32;18.10;1.00
22578;DHT22;11455;52.390;13.028;2023-07-31T07:03:05;18.00;1.00
22578;DHT22;11455;52.390;13.028;2023-07-31T07:05:36;18.00;1.00
22578;DHT22;11455;52.390;13.028;2023-07-31T07:08:11;18.00;1.00
22578;DHT22;11455;52.390;13.028;2023-07-31T07:10:43;18.00;1.00
22578;DHT22;11455;52.390;13.028;2023-07-31T07:13:16;18.00;1.00
22578;DHT22;11455;52.390;13.028;2023-07-31T07:15:50;17.90;1.00
22578;DHT22;11455;52.390;13.028;2023-07-31T07:18:21;17.80;1.00
22578;DHT22;11455;52.390;13.028;2023-07-31T07:20:54;17.90;1.00
22578;DHT22;11455;52.390;13.028;2023-07-31T07:23:26;18.00;1.00
22578;DHT22;11455;52.390;13.028;2023-07-31T07:26:01;18.00;1.00
22578;DHT22;11455;52.390;13.028;2023-07-31T07:28:34;18.00;1.00
22578;DHT22;11455;52.390;13.028;2023-07-31T07:31:05;17.90;1.00
22578;DHT22;11455;52.390;13.028;2023-07-31T07:33:44;18.00;1.00
22578;DHT22;11455;52.390;13.028;2023-07-31T07:36:16;18.00;1.00
22578;DHT22;11455;52.390;13.028;2023-07-31T07:38:51;18.00;1.00
22578;DHT22;11455;52.390;13.028;2023-07-31T07:41:23;17.90;1.00
22578;DHT22;11455;52.390;13.028;2023-07-31T07:43:56;18.00;1.00
22578;DHT22;11455;52.390;13.028;2023-07-31T07:46:28;18.10;1.00
22578;DHT22;11455;52.390;13.028;2023-07-31T07:49:00;18.10;1.00
22578;DHT22;11455;52.390;13.028;2023-07-31T07:51:32;18.20;1.00
22578;DHT22;11455;52.390;13.028;2023-07-31T07:54:07;18.30;1.00
22578;DHT22;11455;52.390;13.028;2023-07-31T07:56:46;18.20;1.00
22578;DHT22;11455;52.390;13.028;2023-07-31T07:59:18;18.20;1.00
22578;DHT22;11455;52.390;13.028;2023-07-31T08:01:51;18.20;1.00
22578;DHT22;11455;52.390;13.028;2023-07-31T08:04:23;18.30;1.00
22578;DHT22;11455;52.390;13.028;2023-07-31T08:06:54;18.30;1.00
22578;DHT22;11455;52.390;13.028;2023-07-31T08:09:26;18.30;1.00
22578;DHT22;11455;52.390;13.028;2023-07-31T08:11:58;18.30;1.00
22578;DHT22;11455;52.390;13.028;2023-07-31T08:14:35;18.30;1.00
22578;DHT22;11455;52.390;13.028;2023-07-31T08:17:09;18.30;1.00
22578;DHT22;11455;52.390;13.028;2023-07-31T08:19:41;18.30;1.00
22578;DHT22;11455;52.390;13.028;2023-07-31T08:22:14;18.30;1.00
22578;DHT22;11455;52.390;13.028;2023-07-31T08:24:46;18.30;1.00
22578;DHT22;11455;52.390;13.028;2023-07-31T08:27:21;18.30;1.00
22578;DHT22;11455;52.390;13.028;2023-07-31T08:29:59;18.30;1.00
22578;DHT22;11455;52.390;13.028;2023-07-31T08:32:34;18.30;1.00
22578;DHT22;11455;52.390;13.028;2023-07-31T08:35:12;18.40;1.00
22578;DHT22;11455;52.390;13.028;2023-07-31T08:37:45;18.30;1.00
22578;DHT22;11455;52.390;13.028;2023-07-31T08:40:10;18.30;1.00
22578;DHT22;11455;52.390;13.028;2023-07-31T08:42:46;18.30;1.00
22578;DHT22;11455;52.390;13.028;2023-07-31T08:45:22;18.30;1.00
22578;DHT22;11455;52.390;13.028;2023-07-31T08:47:56;18.40;1.00
22578;DHT22;11455;52.390;13.028;2023-07-31T08:50:30;18.40;1.00
22578;DHT22;11455;52.390;13.028;2023-07-31T08:53:02;18.40;1.00
22578;DHT22;11455;52.390;13.028;2023-07-31T08:55:35;18.30;1.00
22578;DHT22;11455;52.390;13.028;2023-07-31T08:58:12;18.30;1.00
22578;DHT22;11455;52.390;13.028;2023-07-31T09:00:45;18.30;1.00
22578;DHT22;11455;52.390;13.028;2023-07-31T09:03:18;18.20;1.00
22578;DHT22;11455;52.390;13.028;2023-07-31T09:05:59;18.20;1.00
22578;DHT22;11455;52.390;13.028;2023-07-31T09:08:32;18.30;1.00
22578;DHT22;11455;52.390;13.028;2023-07-31T09:11:06;18.50;1.00
22578;DHT22;11455;52.390;13.028;2023-07-31T09:13:40;18.50;1.00
22578;DHT22;11455;52.390;13.028;2023-07-31T09:16:15;18.60;1.00
22578;DHT22;11455;52.390;13.028;2023-07-31T09:18:56;18.60;1.00
22578;DHT22;11455;52.390;13.028;2023-07-31T09:21:32;18.50;1.00
22578;DHT22;11455;52.390;13.028;2023-07-31T09:24:04;18.50;1.00
22578;DHT22;11455;52.390;13.028;2023-07-31T09:26:38;18.50;1.00
22578;DHT22;11455;52.390;13.028;2023-07-31T09:29:26;18.60;1.00
22578;DHT22;11455;52.390;13.028;2023-07-31T09:32:15;18.60;1.00
22578;DHT22;11455;52.390;13.028;2023-07-31T09:34:49;18.70;1.00
22578;DHT22;11455;52.390;13.028;2023-07-31T09:37:23;18.70;1.00
22578;DHT22;11455;52.390;13.028;2023-07-31T09:39:56;18.70;1.00
22578;DHT22;11455;52.390;13.028;2023-07-31T09:42:30;18.70;1.00
22578;DHT22;11455;52.390;13.028;2023-07-31T09:45:09;18.70;1.00
22578;DHT22;11455;52.390;13.028;2023-07-31T09:47:47;18.60;1.00
22578;DHT22;11455;52.390;13.028;2023-07-31T09:50:21;18.50;1.00
22578;DHT22;11455;52.390;13.028;2023-07-31T09:52:54;18.50;1.00
22578;DHT22;11455;52.390;13.028;2023-07-31T09:55:26;18.50;1.00
22578;DHT22;11455;52.390;13.028;2023-07-31T09:57:58;18.60;1.00
22578;DHT22;11455;52.390;13.028;2023-07-31T10:00:31;18.60;1.00
22578;DHT22;11455;52.390;13.028;2023-07-31T10:03:10;18.60;1.00
22578;DHT22;11455;52.390;13.028;2023-07-31T10:05:50;18.70;1.00
22578;DHT22;11455;52.390;13.028;2023-07-31T10:08:30;18.70;1.00
22578;DHT22;11455;52.390;13.028;2023-07-31T10:11:04;18.70;1.00
22578;DHT22;11455;52.390;13.028;2023-07-31T10:13:37;18.80;1.00
22578;DHT22;11455;52.390;13.028;2023-07-31T10:16:15;18.80;1.00
22578;DHT22;11455;52.390;13.028;2023-07-31T10:18:52;18.90;1.00
22578;DHT22;11455;52.390;13.028;2023-07-31T10:21:27;19.00;1.00
22578;DHT22;11455;52.390;13.028;2023-07-31T10:24:05;19.10;1.00
22578;DHT22;11455;52.390;13.028;2023-07-31T10:26:39;19.10;1.00
22578;DHT22;11455;52.390;13.028;2023-07-31T10:29:16;19.30;1.00
22578;DHT22;11455;52.390;13.028;2023-07-31T10:31:58;19.40;1.00
22578;DHT22;11455;52.390;13.028;2023-07-31T10:34:31;19.50;1.00
22578;DHT22;11455;52.390;13.028;2023-07-31T10:42:37;19.60;1.00
22578;DHT22;11455;52.390;13.028;2023-07-31T10:45:13;19.80;1.00
22578;DHT22;11455;52.390;13.028;2023-07-31T10:47:46;19.90;1.00
22578;DHT22;11455;52.390;13.028;2023-07-31T10:50:22;19.90;1.00
22578;DHT22;11455;52.390;13.028;2023-07-31T10:52:57;20.00;1.00
22578;DHT22;11455;52.390;13.028;2023-07-31T10:55:42;20.10;1.00
22578;DHT22;11455;52.390;13.028;2023-07-31T10:58:18;20.10;99.90
22578;DHT22;11455;52.390;13.028;2023-07-31T11:00:57;20.10;99.90
22578;DHT22;11455;52.390;13.028;2023-07-31T11:03:49;20.10;99.90
22578;DHT22;11455;52.390;13.028;2023-07-31T11:06:29;20.20;99.90
22578;DHT22;11455;52.390;13.028;2023-07-31T11:09:02;20.20;99.90
22578;DHT22;11455;52.390;13.028;2023-07-31T11:11:34;20.20;99.90
22578;DHT22;11455;52.390;13.028;2023-07-31T11:14:06;20.20;99.90
22578;DHT22;11455;52.390;13.028;2023-07-31T11:16:38;20.30;99.90
22578;DHT22;11455;52.390;13.028;2023-07-31T11:19:13;20.30;99.90
22578;DHT22;11455;52.390;13.028;2023-07-31T11:21:48;20.40;99.90
22578;DHT22;11455;52.390;13.028;2023-07-31T11:24:20;20.40;99.90
22578;DHT22;11455;52.390;13.028;2023-07-31T11:26:55;20.30;99.90
22578;DHT22;11455;52.390;13.028;2023-07-31T11:29:28;20.30;99.90
22578;DHT22;11455;52.390;13.028;2023-07-31T11:32:17;20.30;99.90
22578;DHT22;11455;52.390;13.028;2023-07-31T11:34:53;20.30;99.90
22578;DHT22;11455;52.390;13.028;2023-07-31T11:37:42;20.30;99.90
22578;DHT22;11455;52.390;13.028;2023-07-31T11:40:14;20.30;99.90
22578;DHT22;11455;52.390;13.028;2023-07-31T11:42:41;20.20;99.90
22578;DHT22;11455;52.390;13.028;2023-07-31T11:45:14;20.20;99.90
22578;DHT22;11455;52.390;13.028;2023-07-31T11:47:46;20.20;99.90
22578;DHT22;11455;52.390;13.028;2023-07-31T11:50:24;20.30;99.90
22578;DHT22;11455;52.390;13.028;2023-07-31T11:53:00;20.40;99.90
22578;DHT22;11455;52.390;13.028;2023-07-31T11:55:36;20.40;99.90
22578;DHT22;11455;52.390;13.028;2023-07-31T11:58:10;20.30;99.90
22578;DHT22;11455;52.390;13.028;2023-07-31T12:00:43;20.30;99.90
22578;DHT22;11455;52.390;13.028;2023-07-31T12:03:16;20.30;99.90
22578;DHT22;11455;52.390;13.028;2023-07-31T12:05:48;20.40;99.90
22578;DHT22;11455;52.390;13.028;2023-07-31T12:08:22;20.40;99.90
22578;DHT22;11455;52.390;13.028;2023-07-31T12:11:06;20.40;99.90
22578;DHT22;11455;52.390;13.028;2023-07-31T12:13:38;20.40;99.90
22578;DHT22;11455;52.390;13.028;2023-07-31T12:16:13;20.40;99.90
22578;DHT22;11455;52.390;13.028;2023-07-31T12:18:45;20.50;99.90
22578;DHT22;11455;52.390;13.028;2023-07-31T12:21:17;20.50;99.90
22578;DHT22;11455;52.390;13.028;2023-07-31T12:23:49;20.60;99.90
22578;DHT22;11455;52.390;13.028;2023-07-31T12:26:34;20.50;99.90
22578;DHT22;11455;52.390;13.028;2023-07-31T12:29:07;20.60;99.90
22578;DHT22;11455;52.390;13.028;2023-07-31T12:31:42;20.50;99.90
22578;DHT22;11455;52.390;13.028;2023-07-31T12:34:24;20.50;99.90
22578;DHT22;11455;52.390;13.028;2023-07-31T12:36:56;20.50;99.90
22578;DHT22;11455;52.390;13.028;2023-07-31T12:39:28;20.50;99.90
22578;DHT22;11455;52.390;13.028;2023-07-31T12:42:00;20.50;99.90
22578;DHT22;11455;52.390;13.028;2023-07-31T12:44:32;20.50;99.90
22578;DHT22;11455;52.390;13.028;2023-07-31T12:47:08;20.50;99.90
22578;DHT22;11455;52.390;13.028;2023-07-31T12:49:44;20.50;99.90
22578;DHT22;11455;52.390;13.028;2023-07-31T12:52:19;20.60;99.90
22578;DHT22;11455;52.390;13.028;2023-07-31T12:54:51;20.60;99.90
22578;DHT22;11455;52.390;13.028;2023-07-31T12:57:19;20.70;99.90
22578;DHT22;11455;52.390;13.028;2023-07-31T12:59:52;20.70;99.90
22578;DHT22;11455;52.390;13.028;2023-07-31T13:02:24;20.80;99.90
22578;DHT22;11455;52.390;13.028;2023-07-31T13:04:58;20.80;99.90
22578;DHT22;11455;52.390;13.028;2023-07-31T13:07:31;20.90;99.90
22578;DHT22;11455;52.390;13.028;2023-07-31T13:10:03;20.90;99.90
22578;DHT22;11455;52.390;13.028;2023-07-31T13:12:35;20.90;99.90
22578;DHT22;11455;52.390;13.028;2023-07-31T13:15:09;20.80;99.90
22578;DHT22;11455;52.390;13.028;2023-07-31T13:17:42;20.90;99.90
22578;DHT22;11455;52.390;13.028;2023-07-31T13:20:16;20.90;99.90
22578;DHT22;11455;52.390;13.028;2023-07-31T13:22:48;20.90;99.90
22578;DHT22;11455;52.390;13.028;2023-07-31T13:25:20;20.90;99.90
22578;DHT22;11455;52.390;13.028;2023-07-31T13:27:54;20.90;99.90
22578;DHT22;11455;52.390;13.028;2023-07-31T13:30:34;21.00;99.90
22578;DHT22;11455;52.390;13.028;2023-07-31T13:33:06;21.00;99.90
22578;DHT22;11455;52.390;13.028;2023-07-31T13:35:38;21.00;99.90
22578;DHT22;11455;52.390;13.028;2023-07-31T13:38:10;21.00;99.90
22578;DHT22;11455;52.390;13.028;2023-07-31T13:40:42;21.00;99.90
22578;DHT22;11455;52.390;13.028;2023-07-31T13:43:14;21.00;99.90
22578;DHT22;11455;52.390;13.028;2023-07-31T13:45:46;21.00;99.90
22578;DHT22;11455;52.390;13.028;2023-07-31T13:48:18;21.00;99.90
22578;DHT22;11455;52.390;13.028;2023-07-31T13:50:50;21.00;99.90
22578;DHT22;11455;52.390;13.028;2023-07-31T13:53:22;21.10;99.90
22578;DHT22;11455;52.390;13.028;2023-07-31T13:55:50;21.10;99.90
22578;DHT22;11455;52.390;13.028;2023-07-31T13:58:25;21.10;99.90
22578;DHT22;11455;52.390;13.028;2023-07-31T14:00:57;21.10;99.90
22578;DHT22;11455;52.390;13.028;2023-07-31T14:03:29;21.10;99.90
22578;DHT22;11455;52.390;13.028;2023-07-31T14:06:01;21.10;99.90
22578;DHT22;11455;52.390;13.028;2023-07-31T14:08:33;21.10;99.90
22578;DHT22;11455;52.390;13.028;2023-07-31T14:10:58;21.10;99.90
22578;DHT22;11455;52.390;13.028;2023-07-31T14:13:34;21.20;99.90
22578;DHT22;11455;52.390;13.028;2023-07-31T14:16:06;21.20;99.90
22578;DHT22;11455;52.390;13.028;2023-07-31T14:18:38;21.20;99.90
22578;DHT22;11455;52.390;13.028;2023-07-31T14:21:12;21.20;99.90
22578;DHT22;11455;52.390;13.028;2023-07-31T14:23:46;21.20;99.90
22578;DHT22;11455;52.390;13.028;2023-07-31T14:26:19;21.20;99.90
22578;DHT22;11455;52.390;13.028;2023-07-31T14:28:54;21.10;99.90
22578;DHT22;11455;52.390;13.028;2023-07-31T14:31:26;21.10;99.90
22578;DHT22;11455;52.390;13.028;2023-07-31T14:34:05;21.10;99.90
22578;DHT22;11455;52.390;13.028;2023-07-31T14:36:37;21.10;99.90
22578;DHT22;11455;52.390;13.028;2023-07-31T14:39:09;21.20;99.90
22578;DHT22;11455;52.390;13.028;2023-07-31T14:41:41;21.20;99.90
22578;DHT22;11455;52.390;13.028;2023-07-31T14:44:13;21.20;99.90
22578;DHT22;11455;52.390;13.028;2023-07-31T14:46:48;21.20;99.90
22578;DHT22;11455;52.390;13.028;2023-07-31T14:49:20;21.20;99.90
22578;DHT22;11455;52.390;13.028;2023-07-31T14:51:52;21.20;99.90
22578;DHT22;11455;52.390;13.028;2023-07-31T14:54:27;21.10;96.10
22578;DHT22;11455;52.390;13.028;2023-07-31T14:57:00;21.20;99.90
22578;DHT22;11455;52.390;13.028;2023-07-31T14:59:32;21.20;99.90
22578;DHT22;11455;52.390;13.028;2023-07-31T15:02:04;21.30;99.90
22578;DHT22;11455;52.390;13.028;2023-07-31T15:04:37;21.30;99.90
22578;DHT22;11455;52.390;13.028;2023-07-31T15:07:09;21.30;99.90
22578;DHT22;11455;52.390;13.028;2023-07-31T15:09:41;21.30;99.90
22578;DHT22;11455;52.390;13.028;2023-07-31T15:12:15;21.30;99.90
22578;DHT22;11455;52.390;13.028;2023-07-31T15:14:40;21.30;99.90
22578;DHT22;11455;52.390;13.028;2023-07-31T15:17:13;21.30;99.90
22578;DHT22;11455;52.390;13.028;2023-07-31T15:19:46;21.30;99.90
22578;DHT22;11455;52.390;13.028;2023-07-31T15:22:19;21.30;99.90
22578;DHT22;11455;52.390;13.028;2023-07-31T15:24:51;21.30;99.90
22578;DHT22;11455;52.390;13.028;2023-07-31T15:27:23;21.30;99.90
22578;DHT22;11455;52.390;13.028;2023-07-31T15:30:05;21.30;99.90
22578;DHT22;11455;52.390;13.028;2023-07-31T15:32:42;21.30;99.90
22578;DHT22;11455;52.390;13.028;2023-07-31T15:35:22;21.30;99.90
22578;DHT22;11455;52.390;13.028;2023-07-31T15:37:54;21.40;99.90
22578;DHT22;11455;52.390;13.028;2023-07-31T15:40:26;21.40;99.90
22578;DHT22;11455;52.390;13.028;2023-07-31T15:42:58;21.40;99.90
22578;DHT22;11455;52.390;13.028;2023-07-31T15:45:32;21.40;99.90
22578;DHT22;11455;52.390;13.028;2023-07-31T15:48:05;21.40;99.90
22578;DHT22;11455;52.390;13.028;2023-07-31T15:50:37;21.40;99.90
22578;DHT22;11455;52.390;13.028;2023-07-31T15:53:19;21.40;99.90
22578;DHT22;11455;52.390;13.028;2023-07-31T15:55:52;21.40;88.60
22578;DHT22;11455;52.390;13.028;2023-07-31T15:58:27;21.30;70.90
22578;DHT22;11455;52.390;13.028;2023-07-31T16:01:00;21.30;95.40
22578;DHT22;11455;52.390;13.028;2023-07-31T16:03:32;21.30;80.20
22578;DHT22;11455;52.390;13.028;2023-07-31T16:06:06;21.20;98.60
22578;DHT22;11455;52.390;13.028;2023-07-31T16:08:38;21.20;96.70
22578;DHT22;11455;52.390;13.028;2023-07-31T16:11:18;21.20;99.00
22578;DHT22;11455;52.390;13.028;2023-07-31T16:13:50;21.20;99.90
22578;DHT22;11455;52.390;13.028;2023-07-31T16:16:24;21.20;99.90